createdAt,value
2018-04-18T00:00:00.464Z,99.90
2018-04-18T00:02:28.010Z,99.90
2018-04-18T00:04:56.291Z,99.90
2018-04-18T00:07:24.596Z,99.90
2018-04-18T00:09:52.143Z,99.90
2018-04-18T00:12:19.708Z,99.90
2018-04-18T00:14:47.224Z,99.90
2018-04-18T00:17:15.568Z,99.90
2018-04-18T00:19:43.088Z,99.90
2018-04-18T00:22:10.604Z,99.90
2018-04-18T00:24:38.138Z,99.90
2018-04-18T00:27:05.656Z,99.90
2018-04-18T00:29:33.189Z,99.90
2018-04-18T00:32:01.469Z,99.90
2018-04-18T00:34:29.028Z,99.90
2018-04-18T00:36:56.533Z,99.90
2018-04-18T00:39:24.073Z,99.90
2018-04-18T00:41:51.578Z,99.90
2018-04-18T00:44:19.882Z,99.90
2018-04-18T00:46:47.624Z,99.90
2018-04-18T00:49:15.928Z,99.90
2018-04-18T00:51:43.448Z,99.90
2018-04-18T00:54:11.760Z,99.90
2018-04-18T00:56:39.275Z,99.90
2018-04-18T00:59:07.578Z,99.90
2018-04-18T01:01:35.094Z,99.90
2018-04-18T01:04:02.630Z,99.90
2018-04-18T01:06:30.484Z,99.90
2018-04-18T01:08:59.055Z,99.90
2018-04-18T01:11:26.576Z,99.90
2018-04-18T01:13:54.112Z,99.90
2018-04-18T01:16:21.650Z,99.90
2018-04-18T01:18:49.169Z,99.90
2018-04-18T01:21:16.724Z,99.90
2018-04-18T01:23:44.236Z,99.90
2018-04-18T01:26:12.539Z,99.90
2018-04-18T01:28:40.048Z,99.90
2018-04-18T01:31:07.582Z,99.90
2018-04-18T01:33:35.095Z,99.90
2018-04-18T01:36:03.394Z,99.90
2018-04-18T01:38:31.325Z,99.90
2018-04-18T01:40:59.959Z,99.90
2018-04-18T01:43:27.467Z,99.90
2018-04-18T01:45:55.744Z,99.90
2018-04-18T01:48:24.048Z,99.90
2018-04-18T01:50:51.555Z,99.90
2018-04-18T01:53:19.089Z,99.90
2018-04-18T01:55:46.608Z,99.90
2018-04-18T01:58:14.175Z,99.90
2018-04-18T02:00:41.686Z,99.90
2018-04-18T02:03:09.218Z,99.90
2018-04-18T02:05:36.731Z,99.90
2018-04-18T02:08:04.264Z,99.90
2018-04-18T02:10:32.545Z,99.90
2018-04-18T02:13:01.166Z,99.90
2018-04-18T02:15:28.671Z,99.90
2018-04-18T02:17:56.992Z,99.90
2018-04-18T02:20:24.500Z,99.90
2018-04-18T02:22:52.813Z,99.90
2018-04-18T02:25:20.319Z,99.90
2018-04-18T02:27:48.628Z,99.90
2018-04-18T02:30:16.164Z,99.90
2018-04-18T02:32:44.447Z,99.90
2018-04-18T02:35:12.739Z,99.90
2018-04-18T02:37:40.249Z,99.90
2018-04-18T02:40:07.787Z,99.90
2018-04-18T02:42:35.535Z,99.90
2018-04-18T02:45:03.083Z,99.90
2018-04-18T02:47:30.600Z,99.90
2018-04-18T02:49:58.894Z,99.90
2018-04-18T02:52:26.404Z,99.90
2018-04-18T02:54:53.931Z,99.90
2018-04-18T02:57:21.439Z,99.90
2018-04-18T02:59:49.752Z,99.90
2018-04-18T03:02:17.295Z,99.90
2018-04-18T03:04:45.164Z,99.90
2018-04-18T03:07:12.716Z,99.90
2018-04-18T03:09:40.227Z,99.90
2018-04-18T03:12:07.763Z,99.90
2018-04-18T03:14:35.266Z,99.90
2018-04-18T03:17:03.064Z,99.90
2018-04-18T03:19:30.571Z,99.90
2018-04-18T03:21:58.863Z,99.90
2018-04-18T03:24:26.380Z,99.90
2018-04-18T03:26:53.953Z,99.90
2018-04-18T03:29:22.227Z,99.90
2018-04-18T03:31:49.837Z,99.90
2018-04-18T03:34:17.379Z,99.90
2018-04-18T03:36:44.908Z,99.90
2018-04-18T03:39:13.207Z,99.90
2018-04-18T03:41:40.716Z,99.90
2018-04-18T03:44:09.051Z,99.90
2018-04-18T03:46:36.559Z,99.90
2018-04-18T03:49:04.140Z,99.90
2018-04-18T03:51:31.656Z,99.90
2018-04-18T03:53:59.185Z,99.90
2018-04-18T03:56:26.691Z,99.90
2018-04-18T03:58:54.990Z,99.90
2018-04-18T04:01:22.503Z,99.90
2018-04-18T04:03:50.194Z,99.90
2018-04-18T04:06:17.711Z,99.90
2018-04-18T04:08:46.560Z,99.90
2018-04-18T04:11:14.143Z,99.90
2018-04-18T04:13:41.648Z,99.90
2018-04-18T04:16:21.156Z,99.90
2018-04-18T04:19:00.542Z,99.90
2018-04-18T04:21:39.881Z,99.90
2018-04-18T04:24:19.259Z,99.90
2018-04-18T04:26:46.766Z,99.90
2018-04-18T04:29:14.298Z,99.90
2018-04-18T04:31:42.683Z,99.90
2018-04-18T04:34:10.211Z,99.90
2018-04-18T04:36:38.486Z,99.90
2018-04-18T04:39:06.027Z,99.90
2018-04-18T04:41:33.581Z,99.90
2018-04-18T04:44:01.087Z,99.90
2018-04-18T04:46:28.871Z,99.90
2018-04-18T04:48:56.385Z,99.90
2018-04-18T04:51:24.683Z,99.90
2018-04-18T04:53:52.203Z,99.90
2018-04-18T04:56:20.500Z,99.90
2018-04-18T04:58:48.295Z,99.90
2018-04-18T05:01:15.847Z,99.90
2018-04-18T05:03:43.616Z,99.90
2018-04-18T05:06:11.914Z,99.90
2018-04-18T05:08:39.747Z,99.90
2018-04-18T05:11:07.252Z,99.90
2018-04-18T05:13:35.556Z,99.90
2018-04-18T05:16:03.083Z,99.90
2018-04-18T05:18:31.381Z,99.90
2018-04-18T05:20:58.895Z,99.90
2018-04-18T05:23:26.426Z,99.90
2018-04-18T05:25:54.183Z,99.90
2018-04-18T05:28:22.046Z,99.90
2018-04-18T05:30:49.563Z,99.90
2018-04-18T05:33:17.864Z,99.90
2018-04-18T05:35:45.388Z,99.90
2018-04-18T05:38:14.016Z,99.90
2018-04-18T05:40:41.544Z,99.90
2018-04-18T05:43:09.091Z,99.90
2018-04-18T05:45:36.603Z,99.90
2018-04-18T05:48:04.156Z,99.90
2018-04-18T05:50:32.023Z,99.90
2018-04-18T05:52:59.574Z,99.90
2018-04-18T05:55:27.079Z,99.90
2018-04-18T05:57:54.876Z,99.90
2018-04-18T06:00:22.411Z,99.90
2018-04-18T06:02:50.199Z,99.90
2018-04-18T06:05:17.789Z,99.90
2018-04-18T06:07:46.112Z,99.90
2018-04-18T06:10:13.651Z,99.90
2018-04-18T06:12:41.168Z,99.90
2018-04-18T06:15:08.702Z,99.90
2018-04-18T06:17:36.216Z,99.90
2018-04-18T06:20:04.524Z,99.90
2018-04-18T06:22:32.034Z,99.90
2018-04-18T06:25:00.662Z,99.90
2018-04-18T06:27:28.171Z,99.90
2018-04-18T06:29:56.804Z,99.90
2018-04-18T06:32:24.312Z,99.90
2018-04-18T06:34:52.631Z,99.90
2018-04-18T06:37:20.139Z,99.90
2018-04-18T06:39:47.671Z,99.90
2018-04-18T06:42:15.211Z,99.90
2018-04-18T06:44:42.720Z,99.90
2018-04-18T06:47:10.269Z,99.90
2018-04-18T06:49:37.810Z,99.90
2018-04-18T06:52:05.356Z,99.90
2018-04-18T06:54:33.191Z,99.90
2018-04-18T06:57:01.052Z,99.90
2018-04-18T06:59:28.603Z,99.90
2018-04-18T07:01:56.464Z,99.90
2018-04-18T07:04:23.967Z,99.90
2018-04-18T07:06:51.493Z,99.90
2018-04-18T07:09:18.994Z,99.90
2018-04-18T07:11:47.292Z,99.90
2018-04-18T07:14:14.812Z,99.90
2018-04-18T07:16:42.346Z,99.90
2018-04-18T07:19:09.857Z,99.90
2018-04-18T07:21:37.747Z,99.90
2018-04-18T07:24:05.256Z,99.90
2018-04-18T07:26:33.532Z,99.90
2018-04-18T07:29:01.837Z,99.90
2018-04-18T07:31:29.615Z,99.90
2018-04-18T07:33:57.151Z,99.90
2018-04-18T07:36:24.679Z,99.90
2018-04-18T07:38:52.983Z,99.90
2018-04-18T07:41:20.490Z,99.90
2018-04-18T07:43:48.023Z,99.90
2018-04-18T07:46:15.544Z,99.90
2018-04-18T07:48:43.330Z,99.90
2018-04-18T07:51:10.859Z,99.90
2018-04-18T07:53:38.394Z,99.90
2018-04-18T07:56:06.675Z,99.90
2018-04-18T07:58:34.987Z,99.90
2018-04-18T08:01:02.496Z,99.90
2018-04-18T08:03:31.029Z,99.90
2018-04-18T08:05:58.543Z,99.90
2018-04-18T08:08:26.851Z,99.90
2018-04-18T08:10:54.367Z,99.90
2018-04-18T08:13:22.666Z,99.90
2018-04-18T08:15:50.171Z,99.90
2018-04-18T08:18:17.722Z,99.90
2018-04-18T08:20:45.247Z,99.90
2018-04-18T08:23:12.768Z,99.90
2018-04-18T08:25:40.327Z,99.90
2018-04-18T08:28:08.600Z,99.90
2018-04-18T08:30:36.135Z,99.90
2018-04-18T08:33:03.648Z,99.90
2018-04-18T08:35:31.190Z,99.90
2018-04-18T08:37:58.690Z,99.90
2018-04-18T08:40:26.222Z,99.90
2018-04-18T08:42:53.982Z,99.90
2018-04-18T08:45:21.530Z,99.90
2018-04-18T08:47:49.303Z,99.90
2018-04-18T08:50:16.836Z,99.90
2018-04-18T08:52:44.359Z,99.90
2018-04-18T08:55:12.674Z,99.90
2018-04-18T08:57:40.187Z,99.90
2018-04-18T09:00:07.747Z,99.90
2018-04-18T09:02:36.033Z,99.90
2018-04-18T09:05:04.328Z,98.20
2018-04-18T09:07:31.840Z,98.20
2018-04-18T09:09:59.383Z,98.90
2018-04-18T09:12:26.912Z,99.30
2018-04-18T09:14:54.420Z,96.90
2018-04-18T09:17:22.720Z,96.60
2018-04-18T09:19:50.251Z,96.60
2018-04-18T09:22:18.555Z,95.20
2018-04-18T09:24:46.335Z,95.30
2018-04-18T09:27:13.986Z,90.20
2018-04-18T09:29:41.499Z,91.40
2018-04-18T09:32:10.132Z,90.20
2018-04-18T09:34:37.779Z,90.10
2018-04-18T09:37:05.310Z,92.20
2018-04-18T09:39:33.612Z,89.50
2018-04-18T09:42:01.151Z,89.50
2018-04-18T09:44:28.662Z,88.70
2018-04-18T09:46:56.200Z,89.50
2018-04-18T09:49:24.073Z,90.00
2018-04-18T09:51:51.720Z,83.90
2018-04-18T09:54:19.239Z,75.10
2018-04-18T09:56:46.782Z,68.40
2018-04-18T09:59:15.055Z,69.90
2018-04-18T10:01:43.356Z,65.60
2018-04-18T10:04:10.862Z,65.60
2018-04-18T10:06:38.395Z,65.30
2018-04-18T10:09:05.904Z,65.40
2018-04-18T10:11:34.179Z,57.80
2018-04-18T10:14:01.711Z,57.80
2018-04-18T10:16:29.224Z,59.70
2018-04-18T10:18:56.763Z,58.30
2018-04-18T10:21:24.276Z,57.60
2018-04-18T10:23:51.973Z,53.40
2018-04-18T10:26:19.495Z,56.30
2018-04-18T10:28:47.042Z,53.80
2018-04-18T10:31:14.553Z,54.80
2018-04-18T10:33:42.083Z,55.90
2018-04-18T10:36:10.356Z,53.50
2018-04-18T10:38:38.656Z,52.80
2018-04-18T10:41:06.167Z,52.80
2018-04-18T10:43:33.704Z,53.10
2018-04-18T10:46:01.211Z,55.40
2018-04-18T10:48:28.719Z,52.70
2018-04-18T10:50:56.248Z,51.70
2018-04-18T10:53:23.759Z,49.70
2018-04-18T10:55:52.150Z,52.20
2018-04-18T10:58:19.650Z,52.20
2018-04-18T11:00:47.183Z,52.80
2018-04-18T11:03:14.695Z,52.60
2018-04-18T11:05:42.227Z,52.70
2018-04-18T11:08:09.856Z,50.90
2018-04-18T11:10:37.383Z,51.60
2018-04-18T11:13:04.901Z,51.70
2018-04-18T11:15:32.435Z,51.60
2018-04-18T11:17:59.943Z,50.60
2018-04-18T11:20:28.258Z,49.90
2018-04-18T11:22:55.943Z,49.90
2018-04-18T11:25:23.490Z,49.90
2018-04-18T11:27:51.007Z,49.30
2018-04-18T11:30:18.543Z,48.20
2018-04-18T11:32:47.071Z,51.20
2018-04-18T11:35:14.835Z,51.10
2018-04-18T11:37:42.701Z,48.40
2018-04-18T11:40:10.215Z,47.20
2018-04-18T11:42:38.835Z,46.60
2018-04-18T11:45:06.707Z,46.60
2018-04-18T11:47:34.240Z,53.30
2018-04-18T11:50:01.755Z,51.40
2018-04-18T11:52:30.400Z,46.80
2018-04-18T11:54:57.907Z,46.80
2018-04-18T11:57:26.213Z,46.20
2018-04-18T11:59:53.988Z,46.10
2018-04-18T12:02:21.519Z,46.70
2018-04-18T12:04:49.031Z,45.40
2018-04-18T12:07:16.599Z,43.90
2018-04-18T12:09:44.111Z,47.90
2018-04-18T12:12:11.643Z,46.10
2018-04-18T12:14:39.432Z,47.30
2018-04-18T12:17:06.980Z,46.30
2018-04-18T12:19:34.507Z,48.00
2018-04-18T12:22:02.015Z,46.80
2018-04-18T12:24:29.560Z,47.30
2018-04-18T12:26:57.080Z,48.50
2018-04-18T12:29:24.611Z,45.10
2018-04-18T12:31:52.908Z,45.30
2018-04-18T12:34:20.468Z,45.30
2018-04-18T12:36:47.982Z,44.60
2018-04-18T12:39:15.515Z,43.70
2018-04-18T12:41:43.027Z,44.70
2018-04-18T12:44:11.347Z,44.50
2018-04-18T12:46:38.859Z,44.50
2018-04-18T12:49:07.162Z,44.10
2018-04-18T12:51:34.676Z,44.00
2018-04-18T12:54:02.972Z,46.10
2018-04-18T12:56:30.495Z,46.10
2018-04-18T12:58:58.023Z,43.80
2018-04-18T13:01:25.531Z,43.20
2018-04-18T13:03:53.330Z,43.90
2018-04-18T13:06:20.844Z,44.80
2018-04-18T13:08:49.114Z,44.90
2018-04-18T13:11:17.419Z,42.50
2018-04-18T13:13:44.927Z,42.50
2018-04-18T13:16:12.453Z,43.10
2018-04-18T13:18:40.135Z,45.00
2018-04-18T13:21:07.683Z,43.40
2018-04-18T13:23:35.191Z,43.90
2018-04-18T13:26:02.756Z,43.80
2018-04-18T13:28:30.446Z,43.10
2018-04-18T13:30:58.042Z,41.70
2018-04-18T13:33:25.527Z,40.90
2018-04-18T13:35:53.063Z,41.40
2018-04-18T13:38:21.335Z,42.40
2018-04-18T13:40:49.634Z,42.10
2018-04-18T13:43:17.139Z,42.00
2018-04-18T13:45:44.666Z,41.90
2018-04-18T13:48:12.175Z,41.20
2018-04-18T13:50:40.475Z,42.40
2018-04-18T13:53:08.257Z,42.40
2018-04-18T13:55:35.788Z,41.10
2018-04-18T13:58:03.298Z,40.70
2018-04-18T14:00:30.872Z,39.90
2018-04-18T14:02:59.151Z,40.90
2018-04-18T14:05:27.427Z,41.10
2018-04-18T14:07:55.764Z,42.50
2018-04-18T14:10:23.251Z,42.50
2018-04-18T14:12:52.051Z,42.00
2018-04-18T14:15:19.578Z,41.90
2018-04-18T14:17:47.407Z,41.10
2018-04-18T14:20:14.915Z,40.90
2018-04-18T14:22:43.554Z,40.80
2018-04-18T14:25:11.075Z,40.80
2018-04-18T14:27:38.610Z,39.90
2018-04-18T14:30:06.892Z,38.80
2018-04-18T14:32:35.194Z,39.50
2018-04-18T14:35:02.715Z,39.50
2018-04-18T14:37:31.016Z,40.00
2018-04-18T14:39:58.795Z,40.00
2018-04-18T14:42:26.335Z,39.50
2018-04-18T14:44:53.842Z,39.80
2018-04-18T14:47:21.671Z,37.70
2018-04-18T14:49:49.189Z,37.70
2018-04-18T14:52:17.487Z,37.50
2018-04-18T14:54:45.002Z,37.50
2018-04-18T14:57:13.321Z,36.20
2018-04-18T14:59:40.831Z,36.80
2018-04-18T15:02:08.338Z,36.60
2018-04-18T15:04:36.107Z,36.10
2018-04-18T15:07:03.623Z,37.30
2018-04-18T15:09:31.159Z,37.50
2018-04-18T15:11:58.663Z,37.10
2018-04-18T15:14:26.196Z,35.40
2018-04-18T15:16:53.711Z,36.60
2018-04-18T15:19:21.243Z,34.80
2018-04-18T15:21:48.748Z,34.70
2018-04-18T15:24:17.050Z,34.50
2018-04-18T15:26:44.558Z,34.40
2018-04-18T15:29:12.879Z,33.80
2018-04-18T15:31:40.396Z,33.70
2018-04-18T15:34:08.223Z,33.30
2018-04-18T15:36:35.743Z,33.80
2018-04-18T15:39:03.297Z,35.50
2018-04-18T15:44:23.321Z,32.60
2018-04-18T15:46:50.852Z,32.50
2018-04-18T15:49:18.660Z,34.10
2018-04-18T15:51:47.351Z,35.60
2018-04-18T15:54:14.879Z,35.00
2018-04-18T15:56:48.795Z,34.80
2018-04-18T15:59:16.355Z,36.00
2018-04-18T16:01:44.118Z,37.40
2018-04-18T16:04:11.682Z,36.90
2018-04-18T16:06:39.219Z,37.70
2018-04-18T16:09:06.992Z,36.30
2018-04-18T16:11:34.540Z,37.20
2018-04-18T16:14:02.058Z,36.40
2018-04-18T16:16:30.386Z,37.00
2018-04-18T16:18:57.940Z,37.00
2018-04-18T16:21:25.500Z,37.50
2018-04-18T16:23:53.369Z,38.30
2018-04-18T16:26:21.940Z,39.40
2018-04-18T16:28:50.107Z,39.40
2018-04-18T16:31:17.632Z,39.00
2018-04-18T16:33:45.423Z,38.40
2018-04-18T16:36:13.804Z,38.30
2018-04-18T16:38:41.315Z,38.70
2018-04-18T16:41:09.691Z,39.70
2018-04-18T16:43:37.976Z,39.80
2018-04-18T16:46:05.776Z,39.70
2018-04-18T16:48:33.634Z,40.20
2018-04-18T16:51:01.981Z,38.40
2018-04-18T16:53:29.503Z,38.20
2018-04-18T16:55:57.024Z,39.20
2018-04-18T16:58:24.588Z,38.90
2018-04-18T17:00:52.097Z,39.40
2018-04-18T17:03:20.415Z,39.70
2018-04-18T17:05:47.956Z,39.60
2018-04-18T17:08:17.300Z,40.30
2018-04-18T17:10:45.624Z,41.50
2018-04-18T17:13:13.144Z,41.50
2018-04-18T17:15:41.443Z,41.80
2018-04-18T17:18:09.037Z,42.40
2018-04-18T17:20:36.575Z,41.10
2018-04-18T17:23:04.082Z,41.50
2018-04-18T17:25:31.624Z,41.90
2018-04-18T17:27:59.159Z,42.40
2018-04-18T17:30:26.691Z,42.80
2018-04-18T17:32:54.212Z,42.60
2018-04-18T17:35:22.517Z,44.60
2018-04-18T17:37:50.026Z,43.90
2018-04-18T17:40:17.555Z,43.50
2018-04-18T17:42:45.077Z,42.70
2018-04-18T17:45:12.653Z,43.50
2018-04-18T17:47:40.190Z,43.30
2018-04-18T17:50:07.711Z,43.90
2018-04-18T17:52:35.246Z,43.80
2018-04-18T17:55:02.994Z,45.20
2018-04-18T17:57:30.543Z,45.30
2018-04-18T17:59:58.056Z,45.30
2018-04-18T18:02:26.363Z,45.00
2018-04-18T18:04:54.152Z,44.90
2018-04-18T18:07:21.692Z,45.90
2018-04-18T18:09:49.207Z,46.00
2018-04-18T18:12:17.550Z,45.70
2018-04-18T18:14:45.044Z,45.70
2018-04-18T18:17:13.362Z,46.40
2018-04-18T18:19:40.872Z,46.30
2018-04-18T18:22:09.171Z,46.10
2018-04-18T18:24:36.692Z,46.10
2018-04-18T18:27:05.031Z,46.80
2018-04-18T18:29:32.544Z,46.80
2018-04-18T18:32:00.084Z,47.40
2018-04-18T18:34:28.546Z,49.10
2018-04-18T18:36:56.376Z,49.10
2018-04-18T18:39:24.139Z,50.30
2018-04-18T18:41:51.663Z,51.70
2018-04-18T18:44:19.195Z,53.00
2018-04-18T18:46:47.480Z,56.40
2018-04-18T18:49:15.024Z,56.50
2018-04-18T18:51:43.301Z,58.40
2018-04-18T18:54:10.871Z,58.30
2018-04-18T18:56:39.168Z,61.20
2018-04-18T18:59:06.787Z,61.20
2018-04-18T19:01:35.325Z,63.10
2018-04-18T19:04:02.864Z,63.10
2018-04-18T19:06:30.382Z,65.00
2018-04-18T19:08:58.704Z,72.00
2018-04-18T19:11:26.477Z,72.00
2018-04-18T19:13:54.339Z,77.80
2018-04-18T19:16:21.960Z,82.40
2018-04-18T19:18:49.500Z,89.40
2018-04-18T19:21:17.783Z,96.40
2018-04-18T19:23:45.368Z,96.40
2018-04-18T19:26:12.879Z,98.40
2018-04-18T19:28:40.485Z,99.90
2018-04-18T19:31:08.729Z,99.90
2018-04-18T19:33:37.085Z,99.90
2018-04-18T19:36:05.398Z,99.90
2018-04-18T19:38:32.915Z,99.90
2018-04-18T19:41:00.438Z,99.90
2018-04-18T19:43:27.973Z,99.90
2018-04-18T19:45:55.492Z,99.90
2018-04-18T19:48:23.049Z,99.90
2018-04-18T19:50:51.327Z,99.90
2018-04-18T19:53:19.640Z,99.90
2018-04-18T19:55:47.154Z,99.90
2018-04-18T19:58:15.453Z,99.90
2018-04-18T20:00:42.962Z,99.90
2018-04-18T20:03:10.499Z,99.90
2018-04-18T20:05:38.020Z,99.90
2018-04-18T20:08:05.590Z,99.90
2018-04-18T20:10:33.121Z,99.90
2018-04-18T20:13:01.400Z,99.90
2018-04-18T20:15:28.952Z,99.90
2018-04-18T20:17:56.472Z,99.90
2018-04-18T20:20:24.003Z,99.90
2018-04-18T20:22:51.512Z,99.90
2018-04-18T20:25:19.816Z,99.90
2018-04-18T20:27:47.328Z,99.90
2018-04-18T20:30:15.151Z,99.90
2018-04-18T20:32:42.712Z,99.90
2018-04-18T20:35:10.260Z,99.90
2018-04-18T20:37:37.782Z,99.90
2018-04-18T20:40:06.609Z,99.90
2018-04-18T20:42:35.204Z,99.90
2018-04-18T20:45:03.189Z,99.90
2018-04-18T20:47:30.904Z,99.90
2018-04-18T20:49:58.498Z,99.90
2018-04-18T20:52:26.011Z,99.90
2018-04-18T20:54:53.792Z,99.90
2018-04-18T20:57:21.355Z,99.90
2018-04-18T20:59:48.900Z,99.90
2018-04-18T21:02:16.402Z,99.90
2018-04-18T21:04:44.835Z,99.90
2018-04-18T21:07:12.352Z,99.90
2018-04-18T21:09:40.667Z,99.90
2018-04-18T21:12:08.220Z,99.90
2018-04-18T21:14:35.765Z,99.90
2018-04-18T21:17:03.290Z,99.90
2018-04-18T21:19:31.604Z,99.90
2018-04-18T21:21:59.124Z,99.90
2018-04-18T21:24:26.678Z,99.90
2018-04-18T21:26:54.991Z,99.90
2018-04-18T21:29:22.547Z,99.90
2018-04-18T21:31:50.060Z,99.90
2018-04-18T21:34:18.365Z,99.90
2018-04-18T21:36:45.877Z,99.90
2018-04-18T21:39:13.421Z,99.90
2018-04-18T21:41:40.956Z,99.90
2018-04-18T21:44:08.892Z,99.90
2018-04-18T21:46:36.454Z,99.90
2018-04-18T21:49:03.993Z,99.90
2018-04-18T21:51:32.274Z,99.90
2018-04-18T21:53:59.844Z,99.90
2018-04-18T21:56:27.367Z,99.90
2018-04-18T21:58:55.681Z,99.90
2018-04-18T22:01:23.200Z,99.90
2018-04-18T22:03:51.547Z,99.90
2018-04-18T22:06:19.835Z,99.90
2018-04-18T22:08:47.374Z,99.90
2018-04-18T22:11:14.887Z,99.90
2018-04-18T22:13:42.448Z,99.90
2018-04-18T22:16:09.991Z,99.90
2018-04-18T22:18:37.525Z,99.90
2018-04-18T22:21:05.290Z,99.90
2018-04-18T22:23:33.668Z,99.90
2018-04-18T22:26:02.303Z,99.90
2018-04-18T22:28:29.812Z,99.90
2018-04-18T22:30:58.119Z,99.90
2018-04-18T22:33:25.639Z,99.90
2018-04-18T22:35:53.944Z,99.90
2018-04-18T22:38:21.456Z,99.90
2018-04-18T22:40:49.003Z,99.90
2018-04-18T22:43:17.308Z,99.90
2018-04-18T22:45:45.640Z,99.90
2018-04-18T22:48:13.218Z,99.90
2018-04-18T22:50:40.752Z,99.90
2018-04-18T22:53:08.314Z,99.90
2018-04-18T22:55:36.067Z,99.90
2018-04-18T22:58:03.632Z,99.90
2018-04-18T23:00:31.168Z,99.90
2018-04-18T23:02:58.681Z,99.90
2018-04-18T23:05:27.036Z,99.90
2018-04-18T23:07:54.572Z,99.90
2018-04-18T23:10:22.115Z,99.90
2018-04-18T23:12:49.627Z,99.90
2018-04-18T23:15:17.936Z,99.90
2018-04-18T23:17:45.447Z,99.90
2018-04-18T23:20:13.798Z,99.90
2018-04-18T23:22:41.286Z,99.90
2018-04-18T23:25:08.856Z,99.90
2018-04-18T23:27:36.363Z,99.90
2018-04-18T23:30:03.917Z,99.90
2018-04-18T23:32:31.491Z,99.90
2018-04-18T23:34:59.027Z,99.90
2018-04-18T23:37:26.774Z,99.90
2018-04-18T23:39:54.352Z,99.90
2018-04-18T23:42:21.920Z,99.90
2018-04-18T23:44:49.516Z,99.90
2018-04-18T23:47:17.084Z,99.90
2018-04-18T23:49:44.627Z,99.90
2018-04-18T23:52:12.148Z,99.90
2018-04-18T23:54:40.798Z,99.90
2018-04-18T23:57:08.307Z,99.90
2018-04-18T23:59:35.872Z,99.90
